sensor_id;sensor_type;location;lat;lon;timestamp;P1;durP1;ratioP1;P2;durP2;ratioP2
16426;SDS011;8322;-33.900;151.170;2024-03-02T00:00:37;26.35;;;6.20;;
16426;SDS011;8322;-33.900;151.170;2024-03-02T00:03:09;24.58;;;5.95;;
16426;SDS011;8322;-33.900;151.170;2024-03-02T00:05:40;29.13;;;5.53;;
16426;SDS011;8322;-33.900;151.170;2024-03-02T00:08:11;29.63;;;6.07;;
16426;SDS011;8322;-33.900;151.170;2024-03-02T00:10:42;26.00;;;5.18;;
16426;SDS011;8322;-33.900;151.170;2024-03-02T00:13:12;25.38;;;5.22;;
16426;SDS011;8322;-33.900;151.170;2024-03-02T00:15:42;24.98;;;5.45;;
16426;SDS011;8322;-33.900;151.170;2024-03-02T00:18:18;20.60;;;4.65;;
16426;SDS011;8322;-33.900;151.170;2024-03-02T00:20:48;25.88;;;5.43;;
16426;SDS011;8322;-33.900;151.170;2024-03-02T00:23:19;31.48;;;5.40;;
16426;SDS011;8322;-33.900;151.170;2024-03-02T00:25:50;27.92;;;5.05;;
16426;SDS011;8322;-33.900;151.170;2024-03-02T00:28:21;25.70;;;5.13;;
16426;SDS011;8322;-33.900;151.170;2024-03-02T00:30:52;21.55;;;5.30;;
16426;SDS011;8322;-33.900;151.170;2024-03-02T00:33:23;23.08;;;4.97;;
16426;SDS011;8322;-33.900;151.170;2024-03-02T00:35:53;21.20;;;4.80;;
16426;SDS011;8322;-33.900;151.170;2024-03-02T00:38:25;25.52;;;5.03;;
16426;SDS011;8322;-33.900;151.170;2024-03-02T00:40:55;21.80;;;4.75;;
16426;SDS011;8322;-33.900;151.170;2024-03-02T00:43:36;22.67;;;4.82;;
16426;SDS011;8322;-33.900;151.170;2024-03-02T00:46:08;27.63;;;4.95;;
16426;SDS011;8322;-33.900;151.170;2024-03-02T00:48:37;21.75;;;4.68;;
16426;SDS011;8322;-33.900;151.170;2024-03-02T00:51:07;24.67;;;4.82;;
16426;SDS011;8322;-33.900;151.170;2024-03-02T00:53:39;23.88;;;4.78;;
16426;SDS011;8322;-33.900;151.170;2024-03-02T00:56:09;22.23;;;4.90;;
16426;SDS011;8322;-33.900;151.170;2024-03-02T00:58:40;23.45;;;4.72;;
16426;SDS011;8322;-33.900;151.170;2024-03-02T01:01:09;17.17;;;4.03;;
16426;SDS011;8322;-33.900;151.170;2024-03-02T01:03:39;21.00;;;4.45;;
16426;SDS011;8322;-33.900;151.170;2024-03-02T01:06:09;24.20;;;4.18;;
16426;SDS011;8322;-33.900;151.170;2024-03-02T01:08:40;22.38;;;4.40;;
16426;SDS011;8322;-33.900;151.170;2024-03-02T01:11:10;15.20;;;3.75;;
16426;SDS011;8322;-33.900;151.170;2024-03-02T01:13:39;23.67;;;4.25;;
16426;SDS011;8322;-33.900;151.170;2024-03-02T01:16:09;20.27;;;4.50;;
16426;SDS011;8322;-33.900;151.170;2024-03-02T01:18:39;15.90;;;4.20;;
16426;SDS011;8322;-33.900;151.170;2024-03-02T01:21:08;24.00;;;4.25;;
16426;SDS011;8322;-33.900;151.170;2024-03-02T01:23:38;21.73;;;4.57;;
16426;SDS011;8322;-33.900;151.170;2024-03-02T01:26:09;19.90;;;4.60;;
16426;SDS011;8322;-33.900;151.170;2024-03-02T01:28:38;18.48;;;4.35;;
16426;SDS011;8322;-33.900;151.170;2024-03-02T01:31:08;19.08;;;4.10;;
16426;SDS011;8322;-33.900;151.170;2024-03-02T01:33:37;22.33;;;4.60;;
16426;SDS011;8322;-33.900;151.170;2024-03-02T01:36:07;30.05;;;5.00;;
16426;SDS011;8322;-33.900;151.170;2024-03-02T01:38:37;23.45;;;5.10;;
16426;SDS011;8322;-33.900;151.170;2024-03-02T01:41:06;23.60;;;4.68;;
16426;SDS011;8322;-33.900;151.170;2024-03-02T01:43:38;23.42;;;5.07;;
16426;SDS011;8322;-33.900;151.170;2024-03-02T01:46:08;23.13;;;4.65;;
16426;SDS011;8322;-33.900;151.170;2024-03-02T01:48:37;22.13;;;4.80;;
16426;SDS011;8322;-33.900;151.170;2024-03-02T01:51:07;20.15;;;4.25;;
16426;SDS011;8322;-33.900;151.170;2024-03-02T01:53:36;19.63;;;4.53;;
16426;SDS011;8322;-33.900;151.170;2024-03-02T01:56:06;17.27;;;4.03;;
16426;SDS011;8322;-33.900;151.170;2024-03-02T01:58:37;18.95;;;4.30;;
16426;SDS011;8322;-33.900;151.170;2024-03-02T02:01:07;21.15;;;4.80;;
16426;SDS011;8322;-33.900;151.170;2024-03-02T02:03:36;15.90;;;4.90;;
16426;SDS011;8322;-33.900;151.170;2024-03-02T02:06:06;23.23;;;4.80;;
16426;SDS011;8322;-33.900;151.170;2024-03-02T02:08:37;26.23;;;5.10;;
16426;SDS011;8322;-33.900;151.170;2024-03-02T02:11:06;17.10;;;4.38;;
16426;SDS011;8322;-33.900;151.170;2024-03-02T02:13:38;23.52;;;4.57;;
16426;SDS011;8322;-33.900;151.170;2024-03-02T02:16:07;18.15;;;4.47;;
16426;SDS011;8322;-33.900;151.170;2024-03-02T02:18:37;19.60;;;5.00;;
16426;SDS011;8322;-33.900;151.170;2024-03-02T02:21:06;22.15;;;5.07;;
16426;SDS011;8322;-33.900;151.170;2024-03-02T02:23:38;25.25;;;5.90;;
16426;SDS011;8322;-33.900;151.170;2024-03-02T02:26:12;25.52;;;5.05;;
16426;SDS011;8322;-33.900;151.170;2024-03-02T02:28:41;19.30;;;5.20;;
16426;SDS011;8322;-33.900;151.170;2024-03-02T02:31:13;17.10;;;4.30;;
16426;SDS011;8322;-33.900;151.170;2024-03-02T02:33:42;19.58;;;5.13;;
16426;SDS011;8322;-33.900;151.170;2024-03-02T02:36:12;19.40;;;5.07;;
16426;SDS011;8322;-33.900;151.170;2024-03-02T02:38:46;18.35;;;4.93;;
16426;SDS011;8322;-33.900;151.170;2024-03-02T02:41:17;23.38;;;5.13;;
16426;SDS011;8322;-33.900;151.170;2024-03-02T02:43:46;21.67;;;5.82;;
16426;SDS011;8322;-33.900;151.170;2024-03-02T02:46:16;24.27;;;5.22;;
16426;SDS011;8322;-33.900;151.170;2024-03-02T02:48:45;16.73;;;5.05;;
16426;SDS011;8322;-33.900;151.170;2024-03-02T02:51:15;20.45;;;5.57;;
16426;SDS011;8322;-33.900;151.170;2024-03-02T02:53:47;19.02;;;5.53;;
16426;SDS011;8322;-33.900;151.170;2024-03-02T02:56:15;17.08;;;5.38;;
16426;SDS011;8322;-33.900;151.170;2024-03-02T02:58:45;16.10;;;4.90;;
16426;SDS011;8322;-33.900;151.170;2024-03-02T03:01:15;17.35;;;5.55;;
16426;SDS011;8322;-33.900;151.170;2024-03-02T03:03:45;19.00;;;5.95;;
16426;SDS011;8322;-33.900;151.170;2024-03-02T03:06:14;15.13;;;5.38;;
16426;SDS011;8322;-33.900;151.170;2024-03-02T03:08:44;17.85;;;5.53;;
16426;SDS011;8322;-33.900;151.170;2024-03-02T03:11:15;21.13;;;6.30;;
16426;SDS011;8322;-33.900;151.170;2024-03-02T03:13:45;16.48;;;6.32;;
16426;SDS011;8322;-33.900;151.170;2024-03-02T03:16:14;19.52;;;6.18;;
16426;SDS011;8322;-33.900;151.170;2024-03-02T03:18:44;19.38;;;5.75;;
16426;SDS011;8322;-33.900;151.170;2024-03-02T03:21:13;17.25;;;5.45;;
16426;SDS011;8322;-33.900;151.170;2024-03-02T03:23:43;16.67;;;6.03;;
16426;SDS011;8322;-33.900;151.170;2024-03-02T03:26:13;18.63;;;5.18;;
16426;SDS011;8322;-33.900;151.170;2024-03-02T03:28:44;20.42;;;5.78;;
16426;SDS011;8322;-33.900;151.170;2024-03-02T03:31:14;19.30;;;4.60;;
16426;SDS011;8322;-33.900;151.170;2024-03-02T03:33:43;17.35;;;5.63;;
16426;SDS011;8322;-33.900;151.170;2024-03-02T03:36:13;18.75;;;5.07;;
16426;SDS011;8322;-33.900;151.170;2024-03-02T03:38:42;18.35;;;4.97;;
16426;SDS011;8322;-33.900;151.170;2024-03-02T03:41:12;19.55;;;5.03;;
16426;SDS011;8322;-33.900;151.170;2024-03-02T03:43:41;14.30;;;5.20;;
16426;SDS011;8322;-33.900;151.170;2024-03-02T03:46:12;16.55;;;4.85;;
16426;SDS011;8322;-33.900;151.170;2024-03-02T03:48:42;14.93;;;4.85;;
16426;SDS011;8322;-33.900;151.170;2024-03-02T03:51:11;17.08;;;4.70;;
16426;SDS011;8322;-33.900;151.170;2024-03-02T03:53:41;16.23;;;4.75;;
16426;SDS011;8322;-33.900;151.170;2024-03-02T03:56:10;19.52;;;5.05;;
16426;SDS011;8322;-33.900;151.170;2024-03-02T03:58:40;18.90;;;4.68;;
16426;SDS011;8322;-33.900;151.170;2024-03-02T04:01:09;14.75;;;4.32;;
16426;SDS011;8322;-33.900;151.170;2024-03-02T04:03:41;14.85;;;4.32;;
16426;SDS011;8322;-33.900;151.170;2024-03-02T04:06:11;17.23;;;4.57;;
16426;SDS011;8322;-33.900;151.170;2024-03-02T04:08:42;16.40;;;4.88;;
16426;SDS011;8322;-33.900;151.170;2024-03-02T04:11:12;17.00;;;4.68;;
16426;SDS011;8322;-33.900;151.170;2024-03-02T04:13:41;17.05;;;4.28;;
16426;SDS011;8322;-33.900;151.170;2024-03-02T04:16:11;14.55;;;4.35;;
16426;SDS011;8322;-33.900;151.170;2024-03-02T04:18:42;15.43;;;4.32;;
16426;SDS011;8322;-33.900;151.170;2024-03-02T04:21:12;20.77;;;4.28;;
16426;SDS011;8322;-33.900;151.170;2024-03-02T04:23:41;13.10;;;4.10;;
16426;SDS011;8322;-33.900;151.170;2024-03-02T04:26:11;15.77;;;4.38;;
16426;SDS011;8322;-33.900;151.170;2024-03-02T04:28:40;14.55;;;3.75;;
16426;SDS011;8322;-33.900;151.170;2024-03-02T04:31:10;15.80;;;4.28;;
16426;SDS011;8322;-33.900;151.170;2024-03-02T04:33:40;16.45;;;4.15;;
16426;SDS011;8322;-33.900;151.170;2024-03-02T04:36:11;19.98;;;4.28;;
16426;SDS011;8322;-33.900;151.170;2024-03-02T04:38:40;16.95;;;4.70;;
16426;SDS011;8322;-33.900;151.170;2024-03-02T04:41:10;13.98;;;4.15;;
16426;SDS011;8322;-33.900;151.170;2024-03-02T04:43:39;17.00;;;4.10;;
16426;SDS011;8322;-33.900;151.170;2024-03-02T04:46:09;15.25;;;4.40;;
16426;SDS011;8322;-33.900;151.170;2024-03-02T04:48:38;18.85;;;4.45;;
16426;SDS011;8322;-33.900;151.170;2024-03-02T04:51:08;20.73;;;4.22;;
16426;SDS011;8322;-33.900;151.170;2024-03-02T04:53:39;16.98;;;3.92;;
16426;SDS011;8322;-33.900;151.170;2024-03-02T04:56:09;18.27;;;3.83;;
16426;SDS011;8322;-33.900;151.170;2024-03-02T04:59:05;16.58;;;3.83;;
16426;SDS011;8322;-33.900;151.170;2024-03-02T05:01:34;15.32;;;4.10;;
16426;SDS011;8322;-33.900;151.170;2024-03-02T05:04:04;17.05;;;3.83;;
16426;SDS011;8322;-33.900;151.170;2024-03-02T05:06:33;16.27;;;3.38;;
16426;SDS011;8322;-33.900;151.170;2024-03-02T05:09:05;17.58;;;3.75;;
16426;SDS011;8322;-33.900;151.170;2024-03-02T05:11:34;15.38;;;3.42;;
16426;SDS011;8322;-33.900;151.170;2024-03-02T05:14:20;17.45;;;3.67;;
16426;SDS011;8322;-33.900;151.170;2024-03-02T05:16:49;17.42;;;3.75;;
16426;SDS011;8322;-33.900;151.170;2024-03-02T05:19:19;19.38;;;3.80;;
16426;SDS011;8322;-33.900;151.170;2024-03-02T05:21:48;22.73;;;3.90;;
16426;SDS011;8322;-33.900;151.170;2024-03-02T05:24:20;16.17;;;3.55;;
16426;SDS011;8322;-33.900;151.170;2024-03-02T05:26:49;17.05;;;3.88;;
16426;SDS011;8322;-33.900;151.170;2024-03-02T05:29:19;20.02;;;4.53;;
16426;SDS011;8322;-33.900;151.170;2024-03-02T05:31:48;17.40;;;4.57;;
16426;SDS011;8322;-33.900;151.170;2024-03-02T05:34:18;17.48;;;4.15;;
16426;SDS011;8322;-33.900;151.170;2024-03-02T05:36:47;16.80;;;3.83;;
16426;SDS011;8322;-33.900;151.170;2024-03-02T05:39:17;23.45;;;4.03;;
16426;SDS011;8322;-33.900;151.170;2024-03-02T05:41:48;18.02;;;3.33;;
16426;SDS011;8322;-33.900;151.170;2024-03-02T05:44:18;20.05;;;3.65;;
16426;SDS011;8322;-33.900;151.170;2024-03-02T05:46:48;19.05;;;3.70;;
16426;SDS011;8322;-33.900;151.170;2024-03-02T05:49:17;20.20;;;3.67;;
16426;SDS011;8322;-33.900;151.170;2024-03-02T05:51:47;17.15;;;3.20;;
16426;SDS011;8322;-33.900;151.170;2024-03-02T05:54:16;16.10;;;3.50;;
16426;SDS011;8322;-33.900;151.170;2024-03-02T05:56:46;16.10;;;3.30;;
16426;SDS011;8322;-33.900;151.170;2024-03-02T05:59:17;22.80;;;3.40;;
16426;SDS011;8322;-33.900;151.170;2024-03-02T06:01:47;14.40;;;3.20;;
16426;SDS011;8322;-33.900;151.170;2024-03-02T06:04:17;13.88;;;3.33;;
16426;SDS011;8322;-33.900;151.170;2024-03-02T06:06:47;16.75;;;3.40;;
16426;SDS011;8322;-33.900;151.170;2024-03-02T06:09:17;14.52;;;3.10;;
16426;SDS011;8322;-33.900;151.170;2024-03-02T06:11:46;16.73;;;3.15;;
16426;SDS011;8322;-33.900;151.170;2024-03-02T06:14:17;17.63;;;2.90;;
16426;SDS011;8322;-33.900;151.170;2024-03-02T06:16:47;18.02;;;3.72;;
16426;SDS011;8322;-33.900;151.170;2024-03-02T06:19:16;13.65;;;3.17;;
16426;SDS011;8322;-33.900;151.170;2024-03-02T06:21:46;16.95;;;3.38;;
16426;SDS011;8322;-33.900;151.170;2024-03-02T06:24:15;14.93;;;2.75;;
16426;SDS011;8322;-33.900;151.170;2024-03-02T06:26:45;14.80;;;2.90;;
16426;SDS011;8322;-33.900;151.170;2024-03-02T06:29:14;14.55;;;2.70;;
16426;SDS011;8322;-33.900;151.170;2024-03-02T06:31:46;24.88;;;11.38;;
16426;SDS011;8322;-33.900;151.170;2024-03-02T06:34:15;16.45;;;3.45;;
16426;SDS011;8322;-33.900;151.170;2024-03-02T06:36:45;13.25;;;2.95;;
16426;SDS011;8322;-33.900;151.170;2024-03-02T06:39:14;19.67;;;3.22;;
16426;SDS011;8322;-33.900;151.170;2024-03-02T06:41:44;15.48;;;3.10;;
16426;SDS011;8322;-33.900;151.170;2024-03-02T06:44:13;16.05;;;3.13;;
16426;SDS011;8322;-33.900;151.170;2024-03-02T06:46:43;15.43;;;2.67;;
16426;SDS011;8322;-33.900;151.170;2024-03-02T06:49:14;19.00;;;3.40;;
16426;SDS011;8322;-33.900;151.170;2024-03-02T06:51:44;17.42;;;2.95;;
16426;SDS011;8322;-33.900;151.170;2024-03-02T06:54:13;16.65;;;2.83;;
16426;SDS011;8322;-33.900;151.170;2024-03-02T06:56:43;15.38;;;3.05;;
16426;SDS011;8322;-33.900;151.170;2024-03-02T06:59:12;15.23;;;3.45;;
16426;SDS011;8322;-33.900;151.170;2024-03-02T07:01:42;11.15;;;2.40;;
16426;SDS011;8322;-33.900;151.170;2024-03-02T07:04:11;18.20;;;3.38;;
16426;SDS011;8322;-33.900;151.170;2024-03-02T07:06:43;12.02;;;2.50;;
16426;SDS011;8322;-33.900;151.170;2024-03-02T07:09:12;13.20;;;2.47;;
16426;SDS011;8322;-33.900;151.170;2024-03-02T07:11:42;16.00;;;2.95;;
16426;SDS011;8322;-33.900;151.170;2024-03-02T07:14:11;15.63;;;2.80;;
16426;SDS011;8322;-33.900;151.170;2024-03-02T07:16:41;12.75;;;2.83;;
16426;SDS011;8322;-33.900;151.170;2024-03-02T07:19:10;14.95;;;2.90;;
16426;SDS011;8322;-33.900;151.170;2024-03-02T07:21:40;12.98;;;2.70;;
16426;SDS011;8322;-33.900;151.170;2024-03-02T07:24:11;13.60;;;2.10;;
16426;SDS011;8322;-33.900;151.170;2024-03-02T07:26:42;15.68;;;2.38;;
16426;SDS011;8322;-33.900;151.170;2024-03-02T07:29:11;15.10;;;2.75;;
16426;SDS011;8322;-33.900;151.170;2024-03-02T07:31:41;12.43;;;2.38;;
16426;SDS011;8322;-33.900;151.170;2024-03-02T07:34:10;14.20;;;2.58;;
16426;SDS011;8322;-33.900;151.170;2024-03-02T07:36:40;10.45;;;2.00;;
16426;SDS011;8322;-33.900;151.170;2024-03-02T07:39:11;7.55;;;2.28;;
16426;SDS011;8322;-33.900;151.170;2024-03-02T07:41:41;10.88;;;2.30;;
16426;SDS011;8322;-33.900;151.170;2024-03-02T07:44:11;9.23;;;2.05;;
16426;SDS011;8322;-33.900;151.170;2024-03-02T07:46:41;9.57;;;2.35;;
16426;SDS011;8322;-33.900;151.170;2024-03-02T07:49:10;11.80;;;2.85;;
16426;SDS011;8322;-33.900;151.170;2024-03-02T07:51:40;13.98;;;2.47;;
16426;SDS011;8322;-33.900;151.170;2024-03-02T07:54:11;10.57;;;2.40;;
16426;SDS011;8322;-33.900;151.170;2024-03-02T07:56:41;13.05;;;2.95;;
16426;SDS011;8322;-33.900;151.170;2024-03-02T07:59:10;15.40;;;2.97;;
16426;SDS011;8322;-33.900;151.170;2024-03-02T08:01:40;11.60;;;2.72;;
16426;SDS011;8322;-33.900;151.170;2024-03-02T08:04:09;16.70;;;2.90;;
16426;SDS011;8322;-33.900;151.170;2024-03-02T08:06:39;13.70;;;3.38;;
16426;SDS011;8322;-33.900;151.170;2024-03-02T08:09:08;14.18;;;2.70;;
16426;SDS011;8322;-33.900;151.170;2024-03-02T08:11:40;11.00;;;2.92;;
16426;SDS011;8322;-33.900;151.170;2024-03-02T08:14:09;14.60;;;2.75;;
16426;SDS011;8322;-33.900;151.170;2024-03-02T08:16:39;10.32;;;2.42;;
16426;SDS011;8322;-33.900;151.170;2024-03-02T08:19:09;14.20;;;2.55;;
16426;SDS011;8322;-33.900;151.170;2024-03-02T08:21:39;14.65;;;2.80;;
16426;SDS011;8322;-33.900;151.170;2024-03-02T08:24:08;10.05;;;2.40;;
16426;SDS011;8322;-33.900;151.170;2024-03-02T08:26:40;10.88;;;2.65;;
16426;SDS011;8322;-33.900;151.170;2024-03-02T08:29:09;15.50;;;2.72;;
16426;SDS011;8322;-33.900;151.170;2024-03-02T08:31:39;11.73;;;2.60;;
16426;SDS011;8322;-33.900;151.170;2024-03-02T08:34:08;13.05;;;2.50;;
16426;SDS011;8322;-33.900;151.170;2024-03-02T08:36:38;13.93;;;3.35;;
16426;SDS011;8322;-33.900;151.170;2024-03-02T08:39:08;12.65;;;2.50;;
16426;SDS011;8322;-33.900;151.170;2024-03-02T08:41:44;12.65;;;2.47;;
16426;SDS011;8322;-33.900;151.170;2024-03-02T08:44:13;13.02;;;2.67;;
16426;SDS011;8322;-33.900;151.170;2024-03-02T08:46:43;14.82;;;2.47;;
16426;SDS011;8322;-33.900;151.170;2024-03-02T08:49:13;13.05;;;2.63;;
16426;SDS011;8322;-33.900;151.170;2024-03-02T08:51:42;11.40;;;2.80;;
16426;SDS011;8322;-33.900;151.170;2024-03-02T08:54:20;12.40;;;2.63;;
16426;SDS011;8322;-33.900;151.170;2024-03-02T08:56:51;9.55;;;2.25;;
16426;SDS011;8322;-33.900;151.170;2024-03-02T08:59:21;16.17;;;2.78;;
16426;SDS011;8322;-33.900;151.170;2024-03-02T09:01:51;11.93;;;2.50;;
16426;SDS011;8322;-33.900;151.170;2024-03-02T09:04:20;13.95;;;2.35;;
16426;SDS011;8322;-33.900;151.170;2024-03-02T09:06:50;9.23;;;2.10;;
16426;SDS011;8322;-33.900;151.170;2024-03-02T09:09:19;13.77;;;2.70;;
16426;SDS011;8322;-33.900;151.170;2024-03-02T09:11:49;14.13;;;2.50;;
16426;SDS011;8322;-33.900;151.170;2024-03-02T09:14:22;15.95;;;2.78;;
16426;SDS011;8322;-33.900;151.170;2024-03-02T09:16:52;14.32;;;2.63;;
16426;SDS011;8322;-33.900;151.170;2024-03-02T09:19:21;15.48;;;3.03;;
16426;SDS011;8322;-33.900;151.170;2024-03-02T09:21:51;17.30;;;3.38;;
16426;SDS011;8322;-33.900;151.170;2024-03-02T09:24:21;17.05;;;2.80;;
16426;SDS011;8322;-33.900;151.170;2024-03-02T09:26:51;21.90;;;3.78;;
16426;SDS011;8322;-33.900;151.170;2024-03-02T09:29:22;14.98;;;2.90;;
16426;SDS011;8322;-33.900;151.170;2024-03-02T09:31:52;15.02;;;2.97;;
16426;SDS011;8322;-33.900;151.170;2024-03-02T09:34:21;13.82;;;2.60;;
16426;SDS011;8322;-33.900;151.170;2024-03-02T09:36:51;11.48;;;2.25;;
16426;SDS011;8322;-33.900;151.170;2024-03-02T09:39:21;15.25;;;2.58;;
16426;SDS011;8322;-33.900;151.170;2024-03-02T09:41:51;15.30;;;2.70;;
16426;SDS011;8322;-33.900;151.170;2024-03-02T09:44:22;14.55;;;2.45;;
16426;SDS011;8322;-33.900;151.170;2024-03-02T09:46:52;14.23;;;2.30;;
16426;SDS011;8322;-33.900;151.170;2024-03-02T09:49:22;13.23;;;2.70;;
16426;SDS011;8322;-33.900;151.170;2024-03-02T09:51:51;14.05;;;2.45;;
16426;SDS011;8322;-33.900;151.170;2024-03-02T09:54:21;12.20;;;2.72;;
16426;SDS011;8322;-33.900;151.170;2024-03-02T09:56:51;12.82;;;2.50;;
16426;SDS011;8322;-33.900;151.170;2024-03-02T09:59:23;16.20;;;2.72;;
16426;SDS011;8322;-33.900;151.170;2024-03-02T10:01:57;13.05;;;2.50;;
16426;SDS011;8322;-33.900;151.170;2024-03-02T10:04:27;14.27;;;2.40;;
16426;SDS011;8322;-33.900;151.170;2024-03-02T10:07:13;18.83;;;2.90;;
16426;SDS011;8322;-33.900;151.170;2024-03-02T10:09:42;10.65;;;2.08;;
16426;SDS011;8322;-33.900;151.170;2024-03-02T10:12:12;11.05;;;2.38;;
16426;SDS011;8322;-33.900;151.170;2024-03-02T10:14:44;12.45;;;2.40;;
16426;SDS011;8322;-33.900;151.170;2024-03-02T10:17:17;12.38;;;2.15;;
16426;SDS011;8322;-33.900;151.170;2024-03-02T10:19:46;16.05;;;2.30;;
16426;SDS011;8322;-33.900;151.170;2024-03-02T10:22:16;10.57;;;2.10;;
16426;SDS011;8322;-33.900;151.170;2024-03-02T10:24:45;14.75;;;2.03;;
16426;SDS011;8322;-33.900;151.170;2024-03-02T10:27:15;14.43;;;2.40;;
16426;SDS011;8322;-33.900;151.170;2024-03-02T10:29:47;17.50;;;2.15;;
16426;SDS011;8322;-33.900;151.170;2024-03-02T10:32:17;12.43;;;2.22;;
16426;SDS011;8322;-33.900;151.170;2024-03-02T10:34:47;12.18;;;2.05;;
16426;SDS011;8322;-33.900;151.170;2024-03-02T10:37:16;10.77;;;2.15;;
16426;SDS011;8322;-33.900;151.170;2024-03-02T10:39:46;13.32;;;2.35;;
16426;SDS011;8322;-33.900;151.170;2024-03-02T10:42:15;15.57;;;2.90;;
16426;SDS011;8322;-33.900;151.170;2024-03-02T10:44:45;10.98;;;2.28;;
16426;SDS011;8322;-33.900;151.170;2024-03-02T10:47:17;10.00;;;2.05;;
16426;SDS011;8322;-33.900;151.170;2024-03-02T10:49:48;10.82;;;2.33;;
16426;SDS011;8322;-33.900;151.170;2024-03-02T10:52:19;15.82;;;2.40;;
16426;SDS011;8322;-33.900;151.170;2024-03-02T10:54:49;17.38;;;2.63;;
16426;SDS011;8322;-33.900;151.170;2024-03-02T10:57:18;11.20;;;1.92;;
16426;SDS011;8322;-33.900;151.170;2024-03-02T10:59:52;10.73;;;2.08;;
16426;SDS011;8322;-33.900;151.170;2024-03-02T11:02:23;12.93;;;2.50;;
16426;SDS011;8322;-33.900;151.170;2024-03-02T11:04:54;13.88;;;2.35;;
16426;SDS011;8322;-33.900;151.170;2024-03-02T11:07:24;14.50;;;2.15;;
16426;SDS011;8322;-33.900;151.170;2024-03-02T11:09:54;11.45;;;1.98;;
16426;SDS011;8322;-33.900;151.170;2024-03-02T11:12:28;12.13;;;2.20;;
16426;SDS011;8322;-33.900;151.170;2024-03-02T11:14:57;13.63;;;2.22;;
16426;SDS011;8322;-33.900;151.170;2024-03-02T11:17:29;12.88;;;2.47;;
16426;SDS011;8322;-33.900;151.170;2024-03-02T11:19:59;17.13;;;2.50;;
16426;SDS011;8322;-33.900;151.170;2024-03-02T11:22:29;17.85;;;2.92;;
16426;SDS011;8322;-33.900;151.170;2024-03-02T11:24:58;12.68;;;2.80;;
16426;SDS011;8322;-33.900;151.170;2024-03-02T11:30:26;17.55;;;2.97;;
16426;SDS011;8322;-33.900;151.170;2024-03-02T11:33:22;10.98;;;1.90;;
16426;SDS011;8322;-33.900;151.170;2024-03-02T11:35:53;13.13;;;2.25;;
16426;SDS011;8322;-33.900;151.170;2024-03-02T11:38:23;12.70;;;2.75;;
16426;SDS011;8322;-33.900;151.170;2024-03-02T11:40:53;12.65;;;2.47;;
16426;SDS011;8322;-33.900;151.170;2024-03-02T11:43:22;15.32;;;2.42;;
16426;SDS011;8322;-33.900;151.170;2024-03-02T11:45:56;10.32;;;2.20;;
16426;SDS011;8322;-33.900;151.170;2024-03-02T11:48:28;13.52;;;2.50;;
16426;SDS011;8322;-33.900;151.170;2024-03-02T11:50:58;16.45;;;2.33;;
16426;SDS011;8322;-33.900;151.170;2024-03-02T11:53:28;16.27;;;2.65;;
16426;SDS011;8322;-33.900;151.170;2024-03-02T11:55:58;17.27;;;2.75;;
16426;SDS011;8322;-33.900;151.170;2024-03-02T11:58:28;17.42;;;2.50;;
16426;SDS011;8322;-33.900;151.170;2024-03-02T12:00:57;19.58;;;2.88;;
16426;SDS011;8322;-33.900;151.170;2024-03-02T12:03:29;12.18;;;2.03;;
16426;SDS011;8322;-33.900;151.170;2024-03-02T12:05:58;13.68;;;2.45;;
16426;SDS011;8322;-33.900;151.170;2024-03-02T12:08:28;13.32;;;2.17;;
16426;SDS011;8322;-33.900;151.170;2024-03-02T12:10:58;14.10;;;2.20;;
16426;SDS011;8322;-33.900;151.170;2024-03-02T12:13:28;17.35;;;2.58;;
16426;SDS011;8322;-33.900;151.170;2024-03-02T12:15:57;12.82;;;2.05;;
16426;SDS011;8322;-33.900;151.170;2024-03-02T12:18:29;11.07;;;2.50;;
16426;SDS011;8322;-33.900;151.170;2024-03-02T12:20:58;12.80;;;2.35;;
16426;SDS011;8322;-33.900;151.170;2024-03-02T12:23:30;11.93;;;2.28;;
16426;SDS011;8322;-33.900;151.170;2024-03-02T12:25:59;15.90;;;3.00;;
16426;SDS011;8322;-33.900;151.170;2024-03-02T12:28:29;11.60;;;2.45;;
16426;SDS011;8322;-33.900;151.170;2024-03-02T12:30:58;18.05;;;2.40;;
16426;SDS011;8322;-33.900;151.170;2024-03-02T12:33:30;13.23;;;2.33;;
16426;SDS011;8322;-33.900;151.170;2024-03-02T12:35:59;11.35;;;1.98;;
16426;SDS011;8322;-33.900;151.170;2024-03-02T12:38:29;16.00;;;2.08;;
16426;SDS011;8322;-33.900;151.170;2024-03-02T12:40:59;15.95;;;2.53;;
16426;SDS011;8322;-33.900;151.170;2024-03-02T12:43:30;11.60;;;2.30;;
16426;SDS011;8322;-33.900;151.170;2024-03-02T12:45:59;11.05;;;2.05;;
16426;SDS011;8322;-33.900;151.170;2024-03-02T12:48:31;12.52;;;2.20;;
16426;SDS011;8322;-33.900;151.170;2024-03-02T12:51:00;15.48;;;2.30;;
16426;SDS011;8322;-33.900;151.170;2024-03-02T12:53:30;14.27;;;2.40;;
16426;SDS011;8322;-33.900;151.170;2024-03-02T12:55:59;9.85;;;2.00;;
16426;SDS011;8322;-33.900;151.170;2024-03-02T12:58:30;12.23;;;2.60;;
16426;SDS011;8322;-33.900;151.170;2024-03-02T13:01:08;15.80;;;2.45;;
16426;SDS011;8322;-33.900;151.170;2024-03-02T13:03:40;9.95;;;2.13;;
16426;SDS011;8322;-33.900;151.170;2024-03-02T13:06:09;13.02;;;2.33;;
16426;SDS011;8322;-33.900;151.170;2024-03-02T13:08:39;10.05;;;2.25;;
16426;SDS011;8322;-33.900;151.170;2024-03-02T13:11:08;10.88;;;2.30;;
16426;SDS011;8322;-33.900;151.170;2024-03-02T13:13:38;10.88;;;2.25;;
16426;SDS011;8322;-33.900;151.170;2024-03-02T13:16:11;11.32;;;2.30;;
16426;SDS011;8322;-33.900;151.170;2024-03-02T13:18:44;13.18;;;2.38;;
16426;SDS011;8322;-33.900;151.170;2024-03-02T13:21:14;12.63;;;2.33;;
16426;SDS011;8322;-33.900;151.170;2024-03-02T13:23:43;10.13;;;2.13;;
16426;SDS011;8322;-33.900;151.170;2024-03-02T13:26:13;12.13;;;2.20;;
16426;SDS011;8322;-33.900;151.170;2024-03-02T13:28:42;13.90;;;2.30;;
16426;SDS011;8322;-33.900;151.170;2024-03-02T13:31:12;15.32;;;2.67;;
16426;SDS011;8322;-33.900;151.170;2024-03-02T13:33:43;11.00;;;2.35;;
16426;SDS011;8322;-33.900;151.170;2024-03-02T13:36:13;14.20;;;2.25;;
16426;SDS011;8322;-33.900;151.170;2024-03-02T13:38:43;15.75;;;2.38;;
16426;SDS011;8322;-33.900;151.170;2024-03-02T13:41:12;14.48;;;2.70;;
16426;SDS011;8322;-33.900;151.170;2024-03-02T13:43:42;12.68;;;2.05;;
16426;SDS011;8322;-33.900;151.170;2024-03-02T13:46:12;9.48;;;2.33;;
16426;SDS011;8322;-33.900;151.170;2024-03-02T13:48:43;11.95;;;2.47;;
16426;SDS011;8322;-33.900;151.170;2024-03-02T13:51:13;13.38;;;2.30;;
16426;SDS011;8322;-33.900;151.170;2024-03-02T13:53:42;12.77;;;2.00;;
16426;SDS011;8322;-33.900;151.170;2024-03-02T13:56:12;9.48;;;2.10;;
16426;SDS011;8322;-33.900;151.170;2024-03-02T13:58:42;13.25;;;2.67;;
16426;SDS011;8322;-33.900;151.170;2024-03-02T14:01:12;12.07;;;2.00;;
16426;SDS011;8322;-33.900;151.170;2024-03-02T14:03:43;14.13;;;2.50;;
16426;SDS011;8322;-33.900;151.170;2024-03-02T14:06:13;9.38;;;1.95;;
16426;SDS011;8322;-33.900;151.170;2024-03-02T14:08:42;12.02;;;2.25;;
16426;SDS011;8322;-33.900;151.170;2024-03-02T14:11:14;13.50;;;2.05;;
16426;SDS011;8322;-33.900;151.170;2024-03-02T14:13:44;11.20;;;2.22;;
16426;SDS011;8322;-33.900;151.170;2024-03-02T14:16:15;9.68;;;2.40;;
16426;SDS011;8322;-33.900;151.170;2024-03-02T14:18:47;10.60;;;2.22;;
16426;SDS011;8322;-33.900;151.170;2024-03-02T14:21:16;11.50;;;2.22;;
16426;SDS011;8322;-33.900;151.170;2024-03-02T14:23:46;9.35;;;2.00;;
16426;SDS011;8322;-33.900;151.170;2024-03-02T14:26:15;11.07;;;2.03;;
16426;SDS011;8322;-33.900;151.170;2024-03-02T14:28:45;12.75;;;2.38;;